Terminal Aerodrome Forecast
Issued by NWS Mobile, AL

Home | Current Version | Previous Version | Text Only | Print | Product List | Glossary On
Versions: 1 2 3 4 5 6 7 8 9 10 11 12 13 14 15 16
000
FTUS44 KMOB 280521
TAFPNS
TAF
KPNS 280521Z 2806/2906 VRB04KT P6SM SKC
     FM281200 29006KT P6SM FEW050
     FM282100 23009KT P6SM SCT030 SCT250
     FM290300 VRB05KT P6SM SCT050 BKN250=

USA.gov is the U.S. government's official web portal to all federal, state and local government web resources and services.